Map

Track Data

SID SEASON NUMBER BASIN SUBBASIN NAME ISO_TIME NATURE LAT LON WMO_WIND WMO_PRES WMO_AGENCY TRACK_TYPE DIST2LAND LANDFALL IFLAG USA_AGENCY USA_ATCF_ID USA_LAT USA_LON USA_RECORD USA_STATUS USA_WIND USA_PRES USA_SSHS USA_R34_NE USA_R34_SE USA_R34_SW USA_R34_NW USA_R50_NE USA_R50_SE USA_R50_SW USA_R50_NW USA_R64_NE USA_R64_SE USA_R64_SW USA_R64_NW USA_POCI USA_ROCI USA_RMW USA_EYE TOKYO_LAT TOKYO_LON TOKYO_GRADE TOKYO_WIND TOKYO_PRES TOKYO_R50_DIR TOKYO_R50_LONG TOKYO_R50_SHORT TOKYO_R30_DIR TOKYO_R30_LONG TOKYO_R30_SHORT TOKYO_LAND CMA_LAT CMA_LON CMA_CAT CMA_WIND CMA_PRES HKO_LAT HKO_LON HKO_CAT HKO_WIND HKO_PRES NEWDELHI_LAT NEWDELHI_LON NEWDELHI_GRADE NEWDELHI_WIND NEWDELHI_PRES NEWDELHI_CI NEWDELHI_DP NEWDELHI_POCI REUNION_LAT REUNION_LON REUNION_TYPE REUNION_WIND REUNION_PRES REUNION_TNUM REUNION_CI REUNION_RMW REUNION_R34_NE REUNION_R34_SE REUNION_R34_SW REUNION_R34_NW REUNION_R50_NE REUNION_R50_SE REUNION_R50_SW REUNION_R50_NW REUNION_R64_NE REUNION_R64_SE REUNION_R64_SW REUNION_R64_NW BOM_LAT BOM_LON BOM_TYPE BOM_WIND BOM_PRES BOM_TNUM BOM_CI BOM_RMW BOM_R34_NE BOM_R34_SE BOM_R34_SW BOM_R34_NW BOM_R50_NE BOM_R50_SE BOM_R50_SW BOM_R50_NW BOM_R64_NE BOM_R64_SE BOM_R64_SW BOM_R64_NW BOM_ROCI BOM_POCI BOM_EYE BOM_POS_METHOD BOM_PRES_METHOD NADI_LAT NADI_LON NADI_CAT NADI_WIND NADI_PRES WELLINGTON_LAT WELLINGTON_LON WELLINGTON_WIND WELLINGTON_PRES DS824_LAT DS824_LON DS824_STAGE DS824_WIND DS824_PRES TD9636_LAT TD9636_LON TD9636_STAGE TD9636_WIND TD9636_PRES TD9635_LAT TD9635_LON TD9635_WIND TD9635_PRES TD9635_ROCI NEUMANN_LAT NEUMANN_LON NEUMANN_CLASS NEUMANN_WIND NEUMANN_PRES MLC_LAT MLC_LON MLC_CLASS MLC_WIND MLC_PRES USA_GUST BOM_GUST BOM_GUST_PER REUNION_GUST REUNION_GUST_PER USA_SEAHGT USA_SEARAD_NE USA_SEARAD_SE USA_SEARAD_SW USA_SEARAD_NW STORM_SPEED STORM_DIR
1988304S08077 1989 100 SI MM ADELININA 1988-10-30 06:00:00 NR -7.60000 77.1000 main 1561 1561 O_________O___ jtwc_sh SH011989 -7.60000 77.1000 25 -1 -7.60000 77.1000 1 25 1 233
1988304S08077 1989 100 SI MM ADELININA 1988-10-30 09:00:00 NR -7.64117 77.0495 main 1564 1564 P_________P___ SH011989 -7.64000 77.0525 27 -1 -7.64233 77.0466 1 27 1 223
1988304S08077 1989 100 SI MM ADELININA 1988-10-30 12:00:00 NR -7.70000 77.0000 main 1575 1575 O_________O___ jtwc_sh SH011989 -7.70000 77.0000 30 -1 -7.70000 77.0000 1 30 2 214
1988304S08077 1989 100 SI MM ADELININA 1988-10-30 15:00:00 NR -7.78815 76.9538 main 1586 1586 P_________P___ SH011989 -7.79250 76.9425 30 -1 -7.78380 76.9652 1 31 2 203
1988304S08077 1989 100 SI MM ADELININA 1988-10-30 18:00:00 NR -7.89318 76.9199 main 1600 1600 O_________P___ jtwc_sh SH011989 -7.90000 76.9000 30 -1 -7.88636 76.9398 1 32 2 190
1988304S08077 1989 100 SI MM ADELININA 1988-10-30 21:00:00 NR -7.99787 76.9097 main 1610 1610 P_________P___ SH011989 -8.00000 76.9000 32 -1 -7.99574 76.9195 1 33 2 0
1988304S08077 1989 100 SI MM ADELININA 1988-10-31 00:00:00 NR -8.10000 76.9000 main 1621 1621 O_________O___ jtwc_sh SH011989 -8.10000 76.9000 35 0 -8.10000 76.9000 2 35 2 192
1988304S08077 1989 100 SI MM ADELININA 1988-10-31 03:00:00 NR -8.19485 76.8625 main 1632 1632 P_________P___ SH011989 -8.20750 76.8500 35 0 -8.18219 76.8750 2 36 2 203
1988304S08077 1989 100 SI MM ADELININA 1988-10-31 06:00:00 NR -8.27875 76.8250 main 1646 1646 O_________P___ jtwc_sh SH011989 -8.30000 76.8000 35 0 -8.25750 76.8500 2 37 2 199
1988304S08077 1989 100 SI MM ADELININA 1988-10-31 09:00:00 NR -8.33953 76.8125 main 1646 1646 P_________P___ SH011989 -8.35000 76.8000 37 0 -8.32906 76.8250 2 38 1 0
1988304S08077 1989 100 SI MM ADELININA 1988-10-31 12:00:00 NR -8.40000 76.8000 main 1656 1656 O_________O___ jtwc_sh SH011989 -8.40000 76.8000 40 0 -8.40000 76.8000 2 40 2 203
1988304S08077 1989 100 SI MM ADELININA 1988-10-31 15:00:00 NR -8.48547 76.7625 main 1667 1667 P_________P___ SH011989 -8.50000 76.7500 42 0 -8.47094 76.7750 2 42 2 206
1988304S08077 1989 100 SI MM ADELININA 1988-10-31 18:00:00 NR -8.57125 76.7250 main 1681 1681 O_________P___ jtwc_sh SH011989 -8.60000 76.7000 45 0 -8.54250 76.7500 2 45 2 200
1988304S08077 1989 100 SI MM ADELININA 1988-10-31 21:00:00 NR -8.63390 76.7125 main 1681 1681 P_________P___ SH011989 -8.65000 76.7000 47 0 -8.61781 76.7250 2 47 1 191
1988304S08077 1989 100 SI MM ADELININA 1988-11-01 00:00:00 NR -8.70000 76.7000 main 1692 1692 O_________O___ jtwc_sh SH011989 -8.70000 76.7000 50 0 -8.70000 76.7000 2 50 2 201
1988304S08077 1989 100 SI MM ADELININA 1988-11-01 03:00:00 NR -8.78657 76.6584 main 1703 1703 P_________P___ SH011989 -8.79250 76.6500 52 0 -8.78063 76.6669 2 51 2 204
1988304S08077 1989 100 SI MM ADELININA 1988-11-01 06:00:00 NR -8.88500 76.6175 main 1716 1716 O_________P___ jtwc_sh SH011989 -8.90000 76.6000 55 0 -8.87000 76.6350 2 52 2 197
1988304S08077 1989 100 SI MM ADELININA 1988-11-01 09:00:00 NR -8.98719 76.6016 main 1727 1727 P_________P___ SH011989 -9.00000 76.5925 55 0 -8.97438 76.6106 2 53 2 187
1988304S08077 1989 100 SI MM ADELININA 1988-11-01 12:00:00 NR -9.10000 76.6000 main 1738 1738 O_________O___ jtwc_sh SH011989 -9.10000 76.6000 55 0 -9.10000 76.6000 2 55 2 0
1988304S08077 1989 100 SI MM ADELININA 1988-11-01 15:00:00 NR -9.20529 76.5854 main 1749 1749 P_________P___ SH011989 -9.17750 76.5925 55 0 -9.23308 76.5783 2 55 2 0
1988304S08077 1989 100 SI MM ADELININA 1988-11-01 18:00:00 NR -9.34496 76.5876 main 1760 1760 O_________P___ jtwc_sh SH011989 -9.30000 76.6000 55 0 -9.38991 76.5753 2 55 3 174
1988304S08077 1989 100 SI MM ADELININA 1988-11-01 21:00:00 NR -9.54839 76.6148 main 1781 1781 P_________P___ SH011989 -9.51998 76.6200 55 0 -9.57679 76.6096 2 55 5 166
1988304S08077 1989 100 SI MM ADELININA 1988-11-02 00:00:00 NR -9.80000 76.7000 main 1811 1811 O_________O___ jtwc_sh SH011989 -9.80000 76.7000 55 0 -9.80000 76.7000 2 55 6 155
1988304S08077 1989 100 SI MM ADELININA 1988-11-02 03:00:00 NR -10.0681 76.8587 main 1839 1839 P_________P___ SH011989 -10.0925 76.8700 55 0 -10.0437 76.8474 2 57 8 153
1988304S08077 1989 100 SI MM ADELININA 1988-11-02 06:00:00 TS -10.4900 77.0611 28 997 reunion main 1878 1878 O____O____P_O_ jtwc_sh SH011989 -10.4000 77.1000 55 0 -11.0000 77.0000 2 28 997 2.50000 2.50000 -10.3250 77.0528 2 60 -11.0000 77.0000 TC 35 997 10 154
1988304S08077 1989 100 SI MM ADELININA 1988-11-02 09:00:00 TS -10.9454 77.2848 main 1917 1917 P____P____P_P_ SH011989 -10.6774 77.3202 60 0 -11.5150 77.2274 2 32 994 -10.6437 77.3069 2 62 -11.5150 77.2274 TC 40 994 11 153
1988304S08077 1989 100 SI MM ADELININA 1988-11-02 12:00:00 TS -11.4286 77.5571 36 991 reunion main 1966 1966 O____O____O_O_ jtwc_sh SH011989 -11.0000 77.6000 65 1 -12.0000 77.5000 3 36 991 3.00000 3.00000 -11.0000 77.6000 3 65 -12.0000 77.5000 TC 45 991 12 148
1988304S08077 1989 100 SI MM ADELININA 1988-11-02 15:00:00 TS -11.9251 77.8978 main 2016 2016 P____P____P_P_ SH011989 -11.4351 77.9924 70 1 -12.4300 77.8425 3 36 991 -11.4054 77.9138 3 67 -12.4300 77.8425 TC 45 991 11 143
1988304S08077 1989 100 SI MM ADELININA 1988-11-02 18:00:00 TS -12.3356 78.2655 36 991 reunion main 2054 2054 O____O____P_O_ jtwc_sh SH011989 -11.9000 78.4000 75 1 -12.8000 78.2000 3 36 991 3.00000 3.00000 -11.8426 78.2622 3 70 -12.8000 78.2000 TC 45 991 10 139
1988304S08077 1989 100 SI MM ADELININA 1988-11-02 21:00:00 TS -12.7071 78.5863 main 2095 2095 P____P____P_P_ SH011989 -12.3149 78.7152 75 1 -13.1149 78.5002 3 36 991 -12.2835 78.6295 3 72 -13.1149 78.5002 TC 45 991 9 139
1988304S08077 1989 100 SI MM ADELININA 1988-11-03 00:00:00 TS -13.0500 78.9000 36 991 reunion main 2125 2136 O____O____O_O_ jtwc_sh SH011989 -12.7000 79.0000 75 1 -13.4000 78.8000 3 36 991 3.00000 3.00000 -12.7000 79.0000 4 75 -13.4000 78.8000 TC 45 991 9 138
1988304S08077 1989 100 SI MM ADELININA 1988-11-03 03:00:00 TS -13.3942 79.2311 main 2167 2167 P____P____P_P_ SH011989 -13.0649 79.2851 75 1 -13.7150 79.1425 3 36 991 -13.0820 79.3541 4 75 -13.7150 79.1425 TC 45 991 9 135
1988304S08077 1989 100 SI MM ADELININA 1988-11-03 06:00:00 TS -13.7081 79.5769 36 991 reunion main 2198 2198 O____O____P_O_ jtwc_sh SH011989 -13.4000 79.6000 75 1 -14.0000 79.5000 3 36 991 3.00000 3.00000 -13.4323 79.7075 4 75 -14.0000 79.5000 TC 45 991 9 130
1988304S08077 1989 100 SI MM ADELININA 1988-11-03 09:00:00 TS -13.9678 79.9338 main 2230 2230 P____P____P_P_ SH011989 -13.7150 79.9925 75 1 -14.2074 79.8427 3 36 991 -13.7414 80.0572 4 75 -14.2074 79.8427 TC 45 991 9 125
1988304S08077 1989 100 SI MM ADELININA 1988-11-03 12:00:00 TS -14.2000 80.3000 main 2252 2251 O____O____O_O_ jtwc_sh SH011989 -14.0000 80.4000 75 1 -14.4000 80.2000 3 36 991 3.00000 3.00000 -14.0000 80.4000 4 75 -14.4000 80.2000 TC 45 991 9 125
1988304S08077 1989 100 SI MM ADELININA 1988-11-03 15:00:00 TS -14.4635 80.6698 main 2285 2285 P____P____P_P_ SH011989 -14.2874 80.7650 75 1 -14.6649 80.5849 3 36 991 -14.2368 80.7445 4 75 -14.6649 80.5849 TC 45 991 9 124
1988304S08077 1989 100 SI MM ADELININA 1988-11-03 18:00:00 TS -14.6800 81.0450 main 2308 2308 O____O____P_O_ jtwc_sh SH011989 -14.5000 81.1000 75 1 -14.9000 81.0000 3 36 991 3.00000 3.00000 -14.4199 81.0800 4 75 -14.9000 81.0000 TC 45 991 8 115
1988304S08077 1989 100 SI MM ADELININA 1988-11-03 21:00:00 TS -14.7995 81.4215 main 2320 2320 P____P____P_P_ SH011989 -14.5950 81.4151 75 1 -15.0299 81.4351 3 36 991 -14.5431 81.4006 4 75 -15.0299 81.4351 TC 45 991 8 103
1988304S08077 1989 100 SI MM ADELININA 1988-11-04 00:00:00 TS -14.8500 81.8000 main 2322 2322 O____O____O_O_ jtwc_sh SH011989 -14.6000 81.7000 75 1 -15.1000 81.9000 3 36 991 3.00000 3.00000 -14.6000 81.7000 4 75 -15.1000 81.9000 TC 45 991 8 96
1988304S08077 1989 100 SI MM ADELININA 1988-11-04 03:00:00 TS -14.8761 82.1956 main 2336 2330 P____P____P_P_ SH011989 -14.5724 81.9575 75 1 -15.1651 82.4225 3 36 991 -14.6017 81.9800 4 72 -15.1651 82.4225 TC 45 991 7 91
1988304S08077 1989 100 SI MM ADELININA 1988-11-04 06:00:00 TS -14.8600 82.5595 main 2322 2298 O____O____P_O_ jtwc_sh SH011989 -14.5000 82.2000 75 1 -15.2000 82.9000 3 36 991 3.00000 3.00000 -14.5398 82.2378 4 70 -15.2000 82.9000 TC 45 991 6 85
1988304S08077 1989 100 SI MM ADELININA 1988-11-04 09:00:00 TS -14.8157 82.8504 main 2289 2274 P____P____P_P_ SH011989 -14.4150 82.4500 70 1 -15.2073 83.2375 3 32 994 -14.4330 82.4767 4 67 -15.2073 83.2375 TC 40 994 5 70
1988304S08077 1989 100 SI MM ADELININA 1988-11-04 12:00:00 TS -14.6857 83.0429 main 2274 2243 O____O____O_O_ jtwc_sh SH011989 -14.3000 82.7000 65 1 -15.2000 83.5000 2 28 997 2.50000 2.50000 -14.3000 82.7000 4 65 -15.2000 83.5000 TC 35 997 5 51
1988304S08077 1989 100 SI MM ADELININA 1988-11-04 15:00:00 TS -14.5176 83.2272 main 2243 2213 P____P____P_P_ SH011989 -14.1575 82.9650 60 0 -15.2059 83.7745 2 28 997 -14.1878 82.9592 4 61 -15.2059 83.7745 TC 35 997 5 36
1988304S08077 1989 100 SI MM ADELININA 1988-11-04 18:00:00 TS -14.2610 83.3591 main 2213 2185 O____O____P_O_ jtwc_sh SH011989 -14.0000 83.2000 55 0 -15.2000 84.0000 2 28 997 2.50000 2.50000 -14.0525 83.1978 4 57 -15.2000 84.0000 TC 35 997 7 13
1988304S08077 1989 100 SI MM ADELININA 1988-11-04 21:00:00 NR -13.8817 83.3875 main 2185 2163 P____P____P_P_ SH011989 -13.8725 83.3875 52 0 -15.1402 84.1604 2 -13.8910 83.3874 4 53 -15.1402 84.1604 TC 6 14
1988304S08077 1989 100 SI MM ADELININA 1988-11-05 00:00:00 NR -13.7000 83.5000 main 2163 2150 O____P____O_P_ jtwc_sh SH011989 -13.7000 83.5000 50 0 -15.0348 84.2476 2 -13.7000 83.5000 2 50 -15.0348 84.2476 TC 5 19
1988304S08077 1989 100 SI MM ADELININA 1988-11-05 03:00:00 NR -13.4349 83.5387 main 2143 2130 P____P____P_P_ SH011989 -13.4075 83.5450 47 0 -14.8899 84.2659 2 -13.4623 83.5323 2 47 -14.8899 84.2659 TC 6 0
1988304S08077 1989 100 SI MM ADELININA 1988-11-05 06:00:00 NR -13.1499 83.4924 main 2123 2117 O____P____P_P_ jtwc_sh SH011989 -13.1000 83.5000 45 0 -14.7119 84.2196 2 -13.1998 83.4848 2 45 -14.7119 84.2196 TC 6 343
1988304S08077 1989 100 SI MM ADELININA 1988-11-05 09:00:00 NR -12.9112 83.3787 main 2119 2103 P____P____P_P_ SH011989 -12.8850 83.3875 42 0 -14.5068 84.1130 2 -12.9373 83.3699 2 42 -14.5068 84.1130 TC 5 328
1988304S08077 1989 100 SI MM ADELININA 1988-11-05 12:00:00 NR -12.7000 83.2000 main 2103 2078 O____P____O_P_ jtwc_sh SH011989 -12.7000 83.2000 40 0 -14.2807 83.9506 2 -12.7000 83.2000 2 40 -14.2807 83.9506 TC 6 317
1988304S08077 1989 100 SI MM ADELININA 1988-11-05 15:00:00 NR -12.4991 82.9887 main 2078 2053 P____P____P_P_ SH011989 -12.4850 82.9650 37 0 -14.0397 83.7368 2 -12.5131 83.0125 2 38 -14.0397 83.7368 TC 6 310
1988304S08077 1989 100 SI MM ADELININA 1988-11-05 18:00:00 NR -12.3275 82.7375 main 2052 2038 O____P____P_P_ jtwc_sh SH011989 -12.3000 82.7000 35 0 -13.7899 83.4758 2 -12.3550 82.7750 2 37 -13.7899 83.4758 TC 6 301
1988304S08077 1989 100 SI MM ADELININA 1988-11-05 21:00:00 NR -12.2021 82.4788 main 2038 2024 P____P____P_P_ SH011989 -12.1850 82.4576 35 0 -13.5372 83.1721 2 -12.2193 82.5000 2 36 -13.5372 83.1721 TC 6 293
1988304S08077 1989 100 SI MM ADELININA 1988-11-06 00:00:00 NR -12.1000 82.2000 main 2024 2010 O____P____O_P_ jtwc_sh SH011989 -12.1000 82.2000 35 0 -13.2879 82.8300 2 -12.1000 82.2000 2 35 -13.2879 82.8300 TC 6 291
1988304S08077 1989 100 SI MM ADELININA 1988-11-06 03:00:00 NR -11.9866 81.9159 main 2010 1997 P____P____P_P_ SH011989 -12.0000 81.9150 35 0 -13.0478 82.4535 2 -11.9733 81.9169 2 33 -13.0478 82.4535 TC 6 291
1988304S08077 1989 100 SI MM ADELININA 1988-11-06 06:00:00 NR -11.8811 81.6050 main 1997 1984 O____P____P_P_ jtwc_sh SH011989 -11.9000 81.6000 35 0 -12.8231 82.0470 2 -11.8622 81.6100 2 32 -12.8231 82.0470 TC 7 288
1988304S08077 1989 100 SI MM ADELININA 1988-11-06 09:00:00 NR -11.7813 81.2653 main 1984 1972 P____P____P_P_ SH011989 -11.7925 81.2575 32 -1 -12.6199 81.6144 2 -11.7701 81.2731 2 31 -12.6199 81.6144 TC 7 285
1988304S08077 1989 100 SI MM ADELININA 1988-11-06 12:00:00 NR -11.7000 80.9000 main 1972 1972 O____P____O_P_ jtwc_sh SH011989 -11.7000 80.9000 30 -1 -12.4443 81.1598 2 -11.7000 80.9000 1 30 -12.4443 81.1598 TC 7 269
1988304S08077 1989 100 SI MM ADELININA 1988-11-06 15:00:00 TS -11.7917 80.5453 main 1983 1983 P____P____P_P_ SH011989 -11.6348 80.5800 30 -1 -12.3022 80.6870 2 -11.6536 80.4780 1 30 -12.3022 80.6870 TC 8 262
1988304S08077 1989 100 SI MM ADELININA 1988-11-06 18:00:00 TS -11.8092 80.1409 main 1983 1983 O____O____P_O_ jtwc_sh SH011989 -11.6000 80.2000 30 -1 -12.2000 80.2000 2 28 997 2.50000 2.50000 -11.6277 80.0227 1 30 -12.2000 80.2000 TC 35 997 9 268
1988304S08077 1989 100 SI MM ADELININA 1988-11-06 21:00:00 TS -11.8244 79.6393 main 1986 1986 P____P____P_P_ SH011989 -11.5926 79.6650 30 -1 -12.1458 79.6814 2 28 997 -11.6129 79.5560 1 30 -12.1458 79.6814 TC 35 997 10 268
1988304S08077 1989 100 SI MM ADELININA 1988-11-07 00:00:00 TS -11.8500 79.1500 28 997 reunion main 1989 1990 O____O____O_O_ jtwc_sh SH011989 -11.6000 79.1000 30 -1 -12.1000 79.2000 2 28 997 2.50000 2.50000 -11.6000 79.1000 1 30 -12.1000 79.2000 TC 35 997 9 270
1988304S08077 1989 100 SI MM ADELININA 1988-11-07 03:00:00 TS -11.8195 78.7354 main 1994 1994 P____P____P_P_ SH011989 -11.6074 78.6200 30 -1 -12.0499 78.8200 2 28 997 -11.5707 78.6816 1 28 -12.0499 78.8200 TC 35 997 8 275
1988304S08077 1989 100 SI MM ADELININA 1988-11-07 06:00:00 TS -11.7856 78.3694 28 997 reunion main 1998 1991 O____O____P_O_ jtwc_sh SH011989 -11.6000 78.2000 30 -1 -12.0000 78.5000 2 28 997 2.50000 2.50000 -11.5422 78.2775 1 27 -12.0000 78.5000 TC 35 997 7 276
1988304S08077 1989 100 SI MM ADELININA 1988-11-07 09:00:00 TS -11.7418 78.0393 main 1992 1992 P____P____P_P_ SH011989 -11.5499 77.8425 27 -1 -11.9499 78.2150 2 32 -11.5176 77.8847 1 26 -11.9499 78.2150 TC 32 7 277
1988304S08077 1989 100 SI MM ADELININA 1988-11-07 12:00:00 TS -11.7000 77.7000 36 reunion main 1997 1997 O____O____O_O_ jtwc_sh SH011989 -11.5000 77.5000 25 -1 -11.9000 77.9000 6 36 9.90000 -11.5000 77.5000 1 25 -11.9000 77.9000 TC 30 7 276
1988304S08077 1989 100 SI MM ADELININA 1988-11-07 15:00:00 TS -11.6673 77.2877 main 2005 2005 P____P____P_P_ SH011989 -11.4925 77.1000 25 -1 -11.8426 77.4650 6 36 -11.4915 77.1207 1 25 -11.8426 77.4650 TC 30 8 272
1988304S08077 1989 100 SI MM ADELININA 1988-11-07 18:00:00 TS -11.6694 76.8811 36 reunion main 2014 2014 O____O____P_O_ jtwc_sh SH011989 -11.5000 76.7000 25 -1 -11.8000 77.0000 6 36 9.90000 -11.4904 76.7450 1 25 -11.8000 77.0000 TC 30 8 268
1988304S08077 1989 100 SI MM ADELININA 1988-11-07 21:00:00 TS -11.6944 76.5083 main 2023 2023 P____P____P_P_ SH011989 -11.5025 76.3375 25 -1 -11.7924 76.5850 6 36 -11.4941 76.3719 1 25 -11.7924 76.5850 TC 30 7 266
1988304S08077 1989 100 SI MM ADELININA 1988-11-08 00:00:00 TS -11.7250 76.1500 36 reunion main 2031 2033 O____O____O_O_ jtwc_sh SH011989 -11.5000 76.0000 25 -1 -11.8000 76.2000 6 36 9.90000 -11.5000 76.0000 1 25 -11.8000 76.2000 TC 30 7 261
1988304S08077 1989 100 SI MM ADELININA 1988-11-08 03:00:00 TS -11.8026 75.8425 main 2053 2053 _____P______P_ SH011989 -1 -11.8026 75.8425 6 36 1 -11.8026 75.8425 TC 27 6 263
1988304S08077 1989 100 SI MM ADELININA 1988-11-08 06:00:00 TS -11.8000 75.5000 36 reunion main 2061 _____O______O_ -1 -11.8000 75.5000 6 36 9.90000 1 -11.8000 75.5000 TC 25 7 270

About IBTrACS Database

This database is a web-friendly format of International Best Track Archive for Climate Stewardship (IBTrACS), a global best track data archive curated by NOAA dating back to 1842.

Updated: 2021-10-25